createdAt,value
2022-12-20T00:02:06.843Z,79.47
2022-12-20T00:04:54.998Z,79.65
2022-12-20T00:07:37.792Z,79.36
2022-12-20T00:10:26.618Z,79.27
2022-12-20T00:13:09.019Z,79.18
2022-12-20T00:15:57.778Z,79.40
2022-12-20T00:18:40.055Z,80.19
2022-12-20T00:21:28.687Z,80.89
2022-12-20T00:24:23.917Z,79.70
2022-12-20T00:27:16.695Z,79.21
2022-12-20T00:29:59.044Z,79.78
2022-12-20T00:32:47.673Z,80.03
2022-12-20T00:35:30.062Z,80.40
2022-12-20T00:38:19.778Z,80.22
2022-12-20T00:41:38.592Z,80.41
2022-12-20T00:44:36.600Z,81.09
2022-12-20T00:47:25.028Z,80.85
2022-12-20T00:50:06.765Z,80.64
2022-12-20T00:52:55.697Z,81.13
2022-12-20T00:55:37.977Z,81.25
2022-12-20T00:58:26.647Z,81.66
2022-12-20T01:01:09.994Z,80.82
2022-12-20T01:03:59.629Z,81.04
2022-12-20T01:06:42.979Z,80.89
2022-12-20T01:09:31.613Z,81.40
2022-12-20T01:12:20.753Z,81.29
2022-12-20T01:15:02.896Z,80.74
2022-12-20T01:17:52.650Z,80.37
2022-12-20T01:20:34.890Z,80.58
2022-12-20T01:23:23.596Z,79.80
2022-12-20T01:26:16.566Z,80.74
2022-12-20T01:29:03.022Z,80.87
2022-12-20T01:31:51.726Z,80.97
2022-12-20T01:34:33.941Z,81.36
2022-12-20T01:37:22.641Z,80.97
2022-12-20T01:40:11.698Z,82.14
2022-12-20T01:48:36.640Z,80.02
2022-12-20T01:51:27.029Z,80.20
2022-12-20T01:54:46.626Z,80.53
2022-12-20T01:57:46.047Z,80.01
2022-12-20T02:00:28.691Z,80.79
2022-12-20T02:03:20.602Z,80.72
2022-12-20T02:06:09.702Z,80.27
2022-12-20T02:08:54.061Z,80.88
2022-12-20T02:11:52.747Z,81.43
2022-12-20T02:14:56.472Z,81.23
2022-12-20T02:18:00.699Z,81.47
2022-12-20T02:21:14.631Z,80.77
2022-12-20T02:24:37.584Z,80.59
2022-12-20T02:27:42.078Z,80.04
2022-12-20T02:30:30.608Z,80.52
2022-12-20T02:33:15.184Z,80.24
2022-12-20T02:36:03.595Z,79.88
2022-12-20T02:38:59.714Z,79.47
2022-12-20T02:41:54.594Z,79.16
2022-12-20T02:45:05.647Z,80.16
2022-12-20T02:48:12.903Z,80.33
2022-12-20T02:50:59.735Z,80.72
2022-12-20T02:53:50.623Z,79.57
2022-12-20T02:56:47.182Z,78.77
2022-12-20T02:59:45.569Z,78.76
2022-12-20T03:02:35.837Z,79.44
2022-12-20T03:05:31.698Z,78.53
2022-12-20T03:08:13.883Z,77.95
2022-12-20T03:11:04.725Z,77.60
2022-12-20T03:13:46.936Z,77.68
2022-12-20T03:16:35.672Z,76.57
2022-12-20T03:19:18.996Z,78.18
2022-12-20T03:22:07.664Z,80.56
2022-12-20T03:24:49.785Z,79.58
2022-12-20T03:27:38.642Z,78.94
2022-12-20T03:30:27.970Z,78.81
2022-12-20T03:33:10.637Z,77.37
2022-12-20T03:35:58.987Z,77.28
2022-12-20T03:38:41.595Z,76.77
2022-12-20T03:41:24.574Z,76.20
2022-12-20T03:44:15.682Z,75.05
2022-12-20T03:47:10.697Z,74.24
2022-12-20T03:50:01.085Z,74.03
2022-12-20T03:52:44.611Z,73.14
2022-12-20T03:55:32.959Z,72.77
2022-12-20T03:58:14.576Z,72.01
2022-12-20T04:00:59.310Z,72.25
2022-12-20T04:03:54.673Z,71.75
2022-12-20T04:06:36.770Z,72.33
2022-12-20T04:09:25.596Z,71.55
2022-12-20T04:12:13.880Z,71.33
2022-12-20T04:15:02.575Z,71.27
2022-12-20T04:17:53.679Z,67.83
2022-12-20T04:20:36.067Z,67.19
2022-12-20T04:23:33.603Z,64.85
2022-12-20T04:26:18.872Z,65.27
2022-12-20T04:29:07.643Z,66.38
2022-12-20T04:31:52.081Z,66.67
2022-12-20T04:34:40.681Z,65.90
2022-12-20T04:37:22.964Z,66.33
2022-12-20T04:40:13.644Z,65.05
2022-12-20T04:43:07.579Z,65.55
2022-12-20T04:45:58.662Z,65.95
2022-12-20T04:48:56.935Z,67.05
2022-12-20T04:51:42.587Z,65.71
2022-12-20T04:54:28.343Z,65.15
2022-12-20T04:57:28.625Z,66.69
2022-12-20T05:00:16.455Z,66.84
2022-12-20T05:03:14.799Z,65.80
2022-12-20T05:05:57.804Z,65.17
2022-12-20T05:08:49.013Z,65.04
2022-12-20T05:11:37.901Z,67.09
2022-12-20T05:14:20.714Z,67.20
2022-12-20T05:17:09.757Z,66.20
2022-12-20T05:19:51.994Z,66.32
2022-12-20T05:22:58.580Z,66.78
2022-12-20T05:26:01.411Z,66.14
2022-12-20T05:28:52.630Z,65.91
2022-12-20T05:31:36.105Z,66.11
2022-12-20T05:34:24.700Z,65.77
2022-12-20T05:37:07.232Z,65.36
2022-12-20T05:39:57.533Z,66.47
2022-12-20T05:42:47.711Z,66.94
2022-12-20T05:45:37.311Z,64.85
2022-12-20T05:48:30.624Z,65.83
2022-12-20T05:51:13.899Z,64.80
2022-12-20T05:54:22.717Z,65.84
2022-12-20T05:57:11.076Z,61.48
2022-12-20T05:59:59.629Z,59.49
2022-12-20T06:02:52.194Z,62.51
2022-12-20T06:05:41.587Z,59.06
2022-12-20T06:08:36.663Z,58.73
2022-12-20T06:11:29.943Z,57.57
2022-12-20T06:14:23.576Z,57.52
2022-12-20T06:17:05.927Z,56.93
2022-12-20T06:19:54.605Z,57.44
2022-12-20T06:22:45.771Z,56.32
2022-12-20T06:25:28.892Z,54.86
2022-12-20T06:28:17.722Z,56.78
2022-12-20T06:31:00.470Z,55.57
2022-12-20T06:34:03.624Z,55.09
2022-12-20T06:36:55.908Z,54.98
2022-12-20T06:39:41.606Z,55.25
2022-12-20T06:42:30.597Z,55.03
2022-12-20T06:45:13.978Z,54.40
2022-12-20T06:48:02.710Z,53.96
2022-12-20T06:50:56.278Z,53.59
2022-12-20T06:53:38.869Z,53.94
2022-12-20T06:56:27.645Z,52.80
2022-12-20T06:59:16.992Z,52.41
2022-12-20T07:01:58.911Z,53.12
2022-12-20T07:04:46.946Z,52.58
2022-12-20T07:07:28.598Z,52.29
2022-12-20T07:10:17.679Z,52.99
2022-12-20T07:13:01.046Z,52.97
2022-12-20T07:15:49.599Z,53.12
2022-12-20T07:18:31.973Z,51.61
2022-12-20T07:21:24.632Z,51.51
2022-12-20T07:24:14.512Z,51.95
2022-12-20T07:27:03.652Z,52.67
2022-12-20T07:29:46.067Z,51.61
2022-12-20T07:32:34.606Z,50.79
2022-12-20T07:35:19.462Z,50.52
2022-12-20T07:38:08.672Z,51.06
2022-12-20T07:40:51.980Z,50.33
2022-12-20T07:43:40.671Z,51.11
2022-12-20T07:46:24.044Z,50.73
2022-12-20T07:49:13.618Z,49.85
2022-12-20T07:52:10.683Z,50.78
2022-12-20T07:55:07.658Z,52.12
2022-12-20T07:57:56.106Z,50.11
2022-12-20T08:00:47.645Z,50.02
2022-12-20T08:03:59.751Z,51.99
2022-12-20T08:06:43.487Z,51.38
2022-12-20T08:09:33.604Z,50.87
2022-12-20T08:12:25.972Z,51.20
2022-12-20T08:15:08.658Z,51.09
2022-12-20T08:17:58.905Z,51.75
2022-12-20T08:20:41.628Z,51.21
2022-12-20T08:23:29.916Z,50.65
2022-12-20T08:26:11.614Z,50.87
2022-12-20T08:28:59.956Z,51.43
2022-12-20T08:31:50.132Z,51.06
2022-12-20T08:34:38.949Z,51.00
2022-12-20T08:37:20.720Z,51.65
2022-12-20T08:40:09.731Z,52.67
2022-12-20T08:42:51.552Z,52.67
2022-12-20T08:45:40.110Z,52.44
2022-12-20T08:48:35.688Z,52.01
2022-12-20T08:51:17.913Z,52.23
2022-12-20T08:54:07.605Z,53.05
2022-12-20T08:56:56.039Z,52.34
2022-12-20T08:59:37.592Z,52.11
2022-12-20T09:02:27.188Z,50.80
2022-12-20T09:05:10.600Z,49.90
2022-12-20T09:07:58.928Z,50.80
2022-12-20T09:10:41.634Z,51.69
2022-12-20T09:13:29.954Z,51.78
2022-12-20T09:16:14.758Z,51.14
2022-12-20T09:19:06.737Z,50.27
2022-12-20T09:21:49.670Z,49.40
2022-12-20T09:24:37.957Z,48.42
2022-12-20T09:27:19.522Z,47.32
2022-12-20T09:30:08.659Z,47.46
2022-12-20T09:32:50.997Z,48.57
2022-12-20T09:35:41.582Z,48.85
2022-12-20T09:38:30.539Z,48.08
2022-12-20T09:41:50.642Z,48.45
2022-12-20T09:44:38.916Z,49.11
2022-12-20T09:47:32.706Z,49.74
2022-12-20T09:50:22.642Z,49.23
2022-12-20T09:53:33.937Z,48.53
2022-12-20T09:56:31.651Z,48.19
2022-12-20T09:59:24.574Z,47.76
2022-12-20T10:02:53.944Z,48.61
2022-12-20T10:05:46.788Z,48.67
2022-12-20T10:09:06.996Z,46.92
2022-12-20T10:12:29.614Z,47.61
2022-12-20T10:15:29.022Z,45.29
2022-12-20T10:18:23.690Z,45.34
2022-12-20T10:21:34.082Z,45.90
2022-12-20T10:24:27.635Z,45.16
2022-12-20T10:27:26.973Z,46.18
2022-12-20T10:30:23.709Z,47.60
2022-12-20T10:33:06.902Z,50.04
2022-12-20T10:35:56.538Z,50.52
2022-12-20T10:39:06.602Z,48.98
2022-12-20T10:41:59.640Z,49.57
2022-12-20T10:44:41.888Z,48.67
2022-12-20T10:47:54.579Z,50.29
2022-12-20T10:50:43.732Z,51.95
2022-12-20T10:53:32.664Z,49.78
2022-12-20T10:56:37.893Z,49.58
2022-12-20T10:59:26.664Z,50.77
2022-12-20T11:02:40.970Z,53.60
2022-12-20T11:05:37.650Z,51.88
2022-12-20T11:08:39.255Z,51.14
2022-12-20T11:11:31.625Z,52.42
2022-12-20T11:14:23.863Z,50.91
2022-12-20T11:17:08.607Z,53.75
2022-12-20T11:19:59.978Z,54.13
2022-12-20T11:22:54.618Z,54.86
2022-12-20T11:26:16.631Z,52.92
2022-12-20T11:29:41.935Z,53.31
2022-12-20T11:32:35.659Z,55.55
2022-12-20T11:35:34.913Z,55.64
2022-12-20T11:38:38.624Z,54.32
2022-12-20T11:41:53.338Z,55.35
2022-12-20T11:44:37.742Z,57.97
2022-12-20T11:47:50.425Z,57.26
2022-12-20T11:50:54.522Z,57.27
2022-12-20T11:53:46.124Z,57.03
2022-12-20T11:56:45.256Z,56.56
2022-12-20T11:59:51.236Z,58.74
2022-12-20T12:02:58.622Z,58.95
2022-12-20T12:05:51.969Z,59.96
2022-12-20T12:08:48.451Z,59.83
2022-12-20T12:12:05.839Z,59.60
2022-12-20T12:15:26.665Z,60.99
2022-12-20T12:18:43.284Z,61.03
2022-12-20T12:21:43.560Z,62.35
2022-12-20T12:24:42.588Z,61.96
2022-12-20T12:27:35.579Z,62.57
2022-12-20T12:30:22.967Z,61.74
2022-12-20T12:33:24.376Z,62.44
2022-12-20T12:36:32.621Z,62.87
2022-12-20T12:39:26.594Z,63.69
2022-12-20T12:42:43.596Z,63.69
2022-12-20T12:45:36.384Z,64.14
2022-12-20T12:48:58.536Z,65.46
2022-12-20T12:51:51.812Z,66.04
2022-12-20T12:54:50.029Z,66.12
2022-12-20T12:58:07.661Z,66.04
2022-12-20T13:01:03.618Z,66.38
2022-12-20T13:03:55.343Z,66.55
2022-12-20T13:06:44.651Z,67.53
2022-12-20T13:09:33.678Z,67.36
2022-12-20T13:12:47.701Z,67.03
2022-12-20T13:15:37.618Z,67.81
2022-12-20T13:18:20.063Z,68.15
2022-12-20T13:21:40.601Z,68.65
2022-12-20T13:24:47.651Z,69.17
2022-12-20T13:27:49.553Z,69.33
2022-12-20T13:30:34.496Z,68.81
2022-12-20T13:33:54.640Z,69.92
2022-12-20T13:36:46.954Z,69.95
2022-12-20T13:39:37.028Z,70.59
2022-12-20T13:42:34.965Z,69.50
2022-12-20T13:45:23.616Z,69.60
2022-12-20T13:48:17.648Z,70.41
2022-12-20T13:51:06.825Z,70.13
2022-12-20T13:53:57.523Z,70.20
2022-12-20T13:57:06.964Z,70.20
2022-12-20T13:59:52.587Z,70.94
2022-12-20T14:02:48.061Z,71.51
2022-12-20T14:05:50.647Z,71.58
2022-12-20T14:08:35.971Z,72.52
2022-12-20T14:11:43.626Z,72.84
2022-12-20T14:14:31.960Z,72.09
2022-12-20T14:17:36.482Z,71.85
2022-12-20T14:20:26.858Z,72.92
2022-12-20T14:23:30.610Z,72.62
2022-12-20T14:26:46.005Z,73.06
2022-12-20T14:29:36.623Z,73.42
2022-12-20T14:32:29.218Z,72.92
2022-12-20T14:35:12.663Z,72.93
2022-12-20T14:38:02.755Z,73.27
2022-12-20T14:40:54.213Z,73.85
2022-12-20T14:43:38.773Z,74.08
2022-12-20T14:46:36.738Z,74.38
2022-12-20T14:49:31.449Z,73.77
2022-12-20T14:52:26.594Z,73.76
2022-12-20T14:55:27.915Z,73.82
2022-12-20T14:58:30.626Z,74.32
2022-12-20T15:01:29.654Z,73.74
2022-12-20T15:04:38.546Z,74.73
2022-12-20T15:07:40.032Z,74.71
2022-12-20T15:10:22.577Z,73.99
2022-12-20T15:13:04.990Z,74.07
2022-12-20T15:15:53.611Z,72.10
2022-12-20T15:18:43.043Z,71.90
2022-12-20T15:21:36.665Z,72.03
2022-12-20T15:24:31.547Z,72.09
2022-12-20T15:27:20.036Z,72.53
2022-12-20T15:30:08.580Z,72.61
2022-12-20T15:32:55.619Z,72.84
2022-12-20T15:35:44.578Z,73.29
2022-12-20T15:38:54.899Z,73.18
2022-12-20T15:41:42.606Z,73.62
2022-12-20T15:44:30.996Z,73.61
2022-12-20T15:47:21.599Z,73.49
2022-12-20T15:50:19.093Z,73.83
2022-12-20T15:53:08.693Z,74.10
2022-12-20T15:55:51.285Z,73.99
2022-12-20T15:58:40.656Z,74.58
2022-12-20T16:01:48.723Z,74.59
2022-12-20T16:04:37.599Z,74.50
2022-12-20T16:07:21.008Z,74.59
2022-12-20T16:10:09.524Z,74.45
2022-12-20T16:12:59.664Z,74.58
2022-12-20T16:15:48.949Z,75.43
2022-12-20T16:18:34.612Z,74.70
2022-12-20T16:21:34.550Z,75.42
2022-12-20T16:24:27.593Z,75.35
2022-12-20T16:27:16.574Z,75.34
2022-12-20T16:29:58.789Z,75.59
2022-12-20T16:32:48.543Z,75.72
2022-12-20T16:35:42.956Z,75.47
2022-12-20T16:38:31.598Z,76.13
2022-12-20T16:41:28.490Z,76.04
2022-12-20T16:44:23.559Z,75.75
2022-12-20T16:47:05.912Z,76.05
2022-12-20T16:49:54.544Z,76.33
2022-12-20T16:52:45.532Z,76.81
2022-12-20T16:55:32.176Z,76.99
2022-12-20T16:58:44.905Z,76.93
2022-12-20T17:01:33.136Z,76.80
2022-12-20T17:04:26.560Z,77.16
2022-12-20T17:07:15.618Z,77.38
2022-12-20T17:09:58.372Z,77.69
2022-12-20T17:12:47.584Z,78.42
2022-12-20T17:15:38.006Z,78.46
2022-12-20T17:18:26.572Z,78.16
2022-12-20T17:21:11.844Z,77.64
2022-12-20T17:24:01.603Z,78.10
2022-12-20T17:26:43.973Z,78.95
2022-12-20T17:29:32.647Z,78.47
2022-12-20T17:32:27.891Z,77.84
2022-12-20T17:35:38.606Z,78.53
2022-12-20T17:38:20.929Z,78.17
2022-12-20T17:41:09.497Z,78.25
2022-12-20T17:43:51.953Z,78.61
2022-12-20T17:46:41.567Z,77.88
2022-12-20T17:49:37.583Z,78.50
2022-12-20T17:52:28.436Z,78.36
2022-12-20T17:55:10.856Z,78.19
2022-12-20T17:58:00.707Z,77.83
2022-12-20T18:00:42.929Z,78.01
2022-12-20T18:04:02.303Z,77.85
2022-12-20T18:06:34.908Z,77.81
2022-12-20T18:09:26.533Z,77.77
2022-12-20T18:12:09.208Z,77.63
2022-12-20T18:14:58.427Z,77.44
2022-12-20T18:17:40.963Z,77.12
2022-12-20T18:20:29.682Z,77.53
2022-12-20T18:23:11.996Z,78.16
2022-12-20T18:26:00.612Z,77.82
2022-12-20T18:28:44.009Z,78.12
2022-12-20T18:31:35.669Z,78.33
2022-12-20T18:34:17.895Z,77.94
2022-12-20T18:37:06.572Z,77.52
2022-12-20T18:39:48.952Z,77.10
2022-12-20T18:42:37.515Z,77.85
2022-12-20T18:45:19.854Z,77.72
2022-12-20T18:48:08.669Z,77.92
2022-12-20T18:50:56.972Z,78.29
2022-12-20T18:53:41.566Z,78.24
2022-12-20T18:56:48.564Z,78.55
2022-12-20T18:59:30.822Z,78.00
2022-12-20T19:02:19.627Z,78.33
2022-12-20T19:05:08.561Z,78.45
2022-12-20T19:07:51.063Z,78.19
2022-12-20T19:10:40.952Z,78.27
2022-12-20T19:13:22.984Z,78.34
2022-12-20T19:16:16.674Z,79.04
2022-12-20T19:18:59.773Z,78.63
2022-12-20T19:21:49.484Z,78.75
2022-12-20T19:24:38.541Z,77.68
2022-12-20T19:27:27.508Z,77.49
2022-12-20T19:30:09.953Z,77.81
2022-12-20T19:32:58.505Z,78.06
2022-12-20T19:35:55.359Z,77.68
2022-12-20T19:38:44.533Z,77.58
2022-12-20T19:41:27.875Z,77.46
2022-12-20T19:44:17.541Z,77.78
2022-12-20T19:47:06.748Z,77.86
2022-12-20T19:50:02.363Z,78.29
2022-12-20T19:52:51.502Z,77.16
2022-12-20T19:55:34.050Z,77.78
2022-12-20T19:58:22.439Z,78.52
2022-12-20T20:01:05.864Z,78.65
2022-12-20T20:03:55.431Z,78.46
2022-12-20T20:06:37.945Z,77.79
2022-12-20T20:09:26.594Z,78.22
2022-12-20T20:12:09.871Z,78.08
2022-12-20T20:15:00.459Z,77.80
2022-12-20T20:17:42.903Z,78.26
2022-12-20T20:20:31.578Z,78.51
2022-12-20T20:23:13.826Z,78.75
2022-12-20T20:26:07.550Z,78.09
2022-12-20T20:28:49.835Z,77.95
2022-12-20T20:31:39.593Z,78.82
2022-12-20T20:34:21.999Z,78.14
2022-12-20T20:37:10.531Z,77.67
2022-12-20T20:39:52.871Z,77.91
2022-12-20T20:42:41.534Z,78.54
2022-12-20T20:45:23.775Z,78.32
2022-12-20T20:48:12.449Z,78.25
2022-12-20T20:51:00.927Z,78.08
2022-12-20T20:53:43.411Z,78.30
2022-12-20T20:56:32.524Z,78.79
2022-12-20T20:59:17.904Z,78.30
2022-12-20T21:02:06.916Z,78.62
2022-12-20T21:05:07.444Z,78.33
2022-12-20T21:07:57.854Z,78.84
2022-12-20T21:10:40.586Z,78.86
2022-12-20T21:13:28.872Z,78.86
2022-12-20T21:16:15.417Z,79.11
2022-12-20T21:19:06.839Z,79.23
2022-12-20T21:21:48.569Z,79.07
2022-12-20T21:24:30.820Z,79.19
2022-12-20T21:27:19.548Z,79.49
2022-12-20T21:30:08.553Z,79.23
2022-12-20T21:32:50.795Z,79.50
2022-12-20T21:35:39.464Z,79.43
2022-12-20T21:38:28.473Z,79.20
2022-12-20T21:41:20.372Z,79.25
2022-12-20T21:44:11.522Z,78.86
2022-12-20T21:46:59.874Z,79.42
2022-12-20T21:49:55.404Z,79.34
2022-12-20T21:52:45.586Z,79.47
2022-12-20T21:55:27.738Z,79.59
2022-12-20T21:58:16.374Z,79.47
2022-12-20T22:01:00.794Z,79.90
2022-12-20T22:03:49.529Z,79.78
2022-12-20T22:06:32.558Z,79.32
2022-12-20T22:09:21.469Z,79.16
2022-12-20T22:12:10.688Z,79.36
2022-12-20T22:14:59.933Z,79.51
2022-12-20T22:17:42.516Z,79.68
2022-12-20T22:20:31.552Z,79.58
2022-12-20T22:23:13.815Z,80.11
2022-12-20T22:26:02.474Z,78.07
2022-12-20T22:28:50.414Z,76.77
2022-12-20T22:31:39.566Z,76.27
2022-12-20T22:34:21.778Z,76.60
2022-12-20T22:37:10.461Z,76.57
2022-12-20T22:39:59.411Z,76.90
2022-12-20T22:42:42.347Z,77.08
2022-12-20T22:45:31.559Z,77.00
2022-12-20T22:48:19.777Z,77.25
2022-12-20T22:51:10.523Z,77.18
2022-12-20T22:53:59.498Z,76.69
2022-12-20T22:56:47.755Z,77.70
2022-12-20T22:59:30.495Z,77.95
2022-12-20T23:02:18.874Z,77.86
2022-12-20T23:05:01.440Z,77.84
2022-12-20T23:07:50.404Z,77.92
2022-12-20T23:10:57.367Z,78.56
2022-12-20T23:14:09.539Z,78.92
2022-12-20T23:16:51.989Z,80.08
2022-12-20T23:19:59.895Z,79.42
2022-12-20T23:22:41.861Z,78.39
2022-12-20T23:25:30.570Z,78.62
2022-12-20T23:28:12.868Z,77.74
2022-12-20T23:31:01.512Z,78.26
2022-12-20T23:33:44.788Z,79.55
2022-12-20T23:36:33.535Z,79.50
2022-12-20T23:39:16.831Z,78.89
2022-12-20T23:42:05.592Z,77.23
2022-12-20T23:44:47.788Z,77.46
2022-12-20T23:47:36.526Z,80.64
2022-12-20T23:50:24.791Z,82.12
2022-12-20T23:53:06.468Z,82.04
2022-12-20T23:55:58.972Z,82.19
2022-12-20T23:58:47.505Z,85.64
